Latest Weather Observations for Cape Sorell

IDT60801

Issued at 8:02 pm EDT Thursday 19 October 2017 (issued every 30 minutes, with the page automatically refreshed every 10 minutes)

About weather observations | Map of weather stations | Latest weather observations for TAS | Other Formats
Station Details ID: 097000 Name: CAPE SORELL Lat: -42.20 Lon: 145.17 Height: 19.3 m
Data from the previous 72 hours. | See also: Recent months at Cape Sorell
Date/Time
EDT
Temp
°C
App
Temp
°C
Dew
Point
°C
Rel
Hum
%
Delta-T
°C
Wind Press
QNH
hPa
Press
MSL
hPa
Rain since
9am
mm
Dir  Spd
km/h
Gust
km/h
Spd
kts
Gust
kts
19/08:00pm 11.7 6.8 8.4 80 1.6 NW 24 33 13 18 1015.6 1015.7 7.8
19/07:30pm 12.0 6.4 8.8 81 1.6 WNW 28 35 15 19 1015.2 1015.3 7.8
19/07:00pm 12.6 7.7 9.8 83 1.4 WNW 26 35 14 19 1014.7 1014.8 7.8
19/06:30pm 13.4 9.5 10.8 84 1.4 WNW 22 30 12 16 1014.8 1014.9 7.8
19/06:00pm 13.6 9.8 11.3 86 1.2 W 22 30 12 16 1014.6 1014.7 7.8
19/05:30pm 13.5 9.0 11.4 87 1.1 W 26 35 14 19 1014.5 1014.6 7.8
19/05:00pm 12.9 8.0 11.3 90 0.8 WSW 28 37 15 20 1013.8 1013.9 7.8
19/04:30pm 13.2 8.5 11.9 92 0.7 WSW 28 35 15 19 1013.5 1013.6 7.8
19/04:00pm 12.8 7.3 11.7 93 0.6 WSW 32 39 17 21 1012.7 1012.8 7.8
19/03:30pm 13.3 10.2 12.2 93 0.6 WNW 20 30 11 16 1012.5 1012.6 7.8
19/03:00pm 13.6 12.3 12.5 93 0.6 NW 11 17 6 9 1012.3 1012.4 7.8
19/02:30pm 13.4 11.3 12.5 94 0.5 W 15 20 8 11 1011.8 1011.9 7.8
19/02:00pm 13.3 9.5 12.4 94 0.5 WSW 24 32 13 17 1011.5 1011.6 7.8
19/01:30pm 13.3 8.7 12.4 94 0.5 WSW 28 33 15 18 1010.9 1011.0 7.8
19/01:00pm 13.4 7.9 12.3 93 0.6 W 33 48 18 26 1010.5 1010.5 7.8
19/12:30pm 15.1 9.3 14.0 93 0.6 NW 37 46 20 25 1010.2 1010.2 7.8
19/12:00pm 15.3 9.6 14.2 93 0.6 N 37 48 20 26 1009.9 1009.9 7.0
19/11:30am 15.2 10.4 14.1 93 0.6 N 32 41 17 22 1010.1 1010.1 6.8
19/11:00am 15.3 10.0 14.2 93 0.6 N 35 43 19 23 1010.2 1010.2 5.8
19/10:30am 15.1 10.2 13.8 92 0.7 N 32 37 17 20 1010.0 1010.0 4.2
19/10:00am 15.0 10.9 13.7 92 0.7 NNE 28 33 15 18 1010.4 1010.4 3.8
19/09:30am 14.9 11.1 13.6 92 0.7 NNE 26 32 14 17 1010.7 1010.7 1.4
19/09:00am 14.9 10.7 13.4 91 0.8 NNE 28 32 15 17 1010.8 1010.9 12.8
19/08:30am 14.9 11.0 13.3 90 0.9 NNE 26 30 14 16 1011.2 1011.3 12.2
19/08:00am 14.6 9.5 13.0 90 0.9 N 32 37 17 20 1010.9 1011.0 10.8
19/07:30am 14.6 8.7 12.5 87 1.1 N 35 46 19 25 1011.2 1011.3 8.6
19/07:00am 14.6 9.0 11.6 82 1.6 NNW 32 43 17 23 1010.8 1010.9 6.6
19/06:30am 14.4 9.6 10.2 76 2.2 NW 26 33 14 18 1010.9 1011.0 3.2
19/06:00am 14.9 12.5 10.1 73 2.5 W 13 22 7 12 1011.1 1011.2 0.4
19/05:30am 16.0 14.9 10.7 71 2.8 W 7 15 4 8 1010.8 1010.9 0.0
19/05:00am 16.5 15.4 10.8 69 3.0 NNW 7 9 4 5 1010.2 1010.2 0.0
19/04:30am 16.6 15.1 10.7 68 3.1 NNE 9 11 5 6 1010.1 1010.1 0.0
19/04:00am 17.3 13.9 10.7 65 3.5 NNW 19 22 10 12 1010.7 1010.7 0.0
19/03:30am 17.6 14.7 10.9 65 3.6 N 17 22 9 12 1011.2 1011.3 0.0
19/03:00am 18.0 15.0 11.8 67 3.4 NNW 19 22 10 12 1011.4 1011.5 0.0
19/02:30am 16.7 15.0 11.2 70 3.0 NNW 11 13 6 7 1011.8 1011.9 0.0
19/02:00am 17.1 15.1 11.4 69 3.1 NNE 13 19 7 10 1012.0 1012.1 0.0
19/01:30am 17.4 14.9 11.0 66 3.4 NNW 15 20 8 11 1013.1 1013.2 0.0
19/01:03am 18.4 13.4 11.0 62 4.0 NW 28 46 15 25 1013.5 1013.6 0.0
19/01:00am 18.1 12.6 10.7 62 4.0 NW 30 46 16 25 1013.5 1013.6 0.0
19/12:48am 18.6 12.1 10.2 58 4.5 N 35 48 19 26 1013.8 1013.9 0.0
19/12:30am 19.9 12.9 9.8 52 5.4 N 37 48 20 26 1012.8 1012.9 0.0
19/12:27am 19.7 11.9 9.9 53 5.2 N 41 61 22 33 1012.9 1013.0 0.0
19/12:13am 21.1 15.2 9.0 46 6.4 NW 30 50 16 27 1012.8 1012.9 0.0
19/12:09am 20.0 15.3 10.7 55 5.1 NW 26 50 14 27 1013.3 1013.4 0.0
19/12:00am 19.4 13.0 10.7 57 4.7 NNE 35 44 19 24 1012.6 1012.7 0.0
 
Date/Time
EDT
Temp
°C
App
Temp
°C
Dew
Point
°C
Rel
Hum
%
Delta-T
°C
Wind Press
QNH
hPa
Press
MSL
hPa
Rain since
9am
mm
Dir  Spd
km/h
Gust
km/h
Spd
kts
Gust
kts
18/11:30pm 19.7 12.6 10.9 57 4.8 NNE 39 46 21 25 1012.2 1012.3 0.0
18/11:00pm 19.4 12.5 11.7 61 4.3 NNE 39 44 21 24 1012.6 1012.7 0.0
18/10:30pm 19.3 12.8 11.8 62 4.1 NNE 37 39 20 21 1013.0 1013.1 0.0
18/10:00pm 19.4 13.3 11.7 61 4.3 NNE 35 41 19 22 1013.5 1013.6 0.0
18/09:30pm 18.4 13.5 12.4 68 3.3 NNE 30 32 16 17 1013.7 1013.8 0.0
18/09:00pm 18.8 13.8 12.1 65 3.7 N 30 33 16 18 1013.7 1013.8 0.0
18/08:30pm 19.6 14.2 12.1 62 4.2 N 32 35 17 19 1013.7 1013.8 0.0
18/08:00pm 18.9 14.6 12.2 65 3.7 N 26 32 14 17 1013.6 1013.7 0.0
18/07:30pm 18.5 14.2 12.0 66 3.6 N 26 33 14 18 1013.5 1013.6 0.0
18/07:00pm 18.3 14.3 11.8 66 3.6 N 24 26 13 14 1013.7 1013.8 0.0
18/06:30pm 20.2 15.7 11.4 57 4.9 NNW 26 32 14 17 1013.7 1013.8 0.0
18/06:00pm 21.0 16.5 11.3 54 5.4 NNW 26 33 14 18 1013.6 1013.7 0.0
18/05:30pm 21.5 16.9 11.2 52 5.7 NNW 26 35 14 19 1013.7 1013.8 0.0
18/05:00pm 21.3 16.0 11.3 53 5.5 NNW 30 35 16 19 1013.8 1013.9 0.0
18/04:30pm 21.6 17.7 10.7 50 6.0 NNW 22 28 12 15 1014.2 1014.3 0.0
18/04:00pm 22.3 17.7 11.1 49 6.2 NNW 26 35 14 19 1014.5 1014.6 0.0
18/03:30pm 22.7 19.1 12.0 50 6.0 N 22 28 12 15 1015.0 1015.1 0.0
18/03:00pm 22.8 19.7 11.5 49 6.3 N 19 24 10 13 1015.6 1015.7 0.0
18/02:30pm 23.4 19.4 11.8 48 6.5 N 24 32 13 17 1016.1 1016.1 0.0
18/02:00pm 22.4 18.4 11.8 51 5.9 N 24 28 13 15 1016.4 1016.4 0.0
18/01:30pm 21.6 17.5 11.6 53 5.6 N 24 30 13 16 1016.7 1016.7 0.0
18/01:00pm 21.6 16.8 11.6 53 5.6 NNE 28 32 15 17 1017.0 1017.0 0.0
18/12:30pm 22.9 17.4 10.7 46 6.7 N 30 35 16 19 1017.6 1017.6 0.0
18/12:00pm 19.8 15.7 11.6 59 4.5 N 24 30 13 16 1018.0 1018.0 0.0
18/11:30am 20.6 15.9 12.1 58 4.8 N 28 30 15 16 1018.2 1018.2 0.0
18/11:00am 20.5 14.9 11.4 56 5.0 N 32 35 17 19 1018.4 1018.4 0.0
18/10:30am 20.7 14.4 11.1 54 5.3 N 35 39 19 21 1018.5 1018.5 0.0
18/10:00am 19.9 14.0 11.1 57 4.8 NNE 33 35 18 19 1018.4 1018.4 0.0
18/09:30am 19.3 13.3 10.8 58 4.6 NNE 33 37 18 20 1018.2 1018.2 0.0
18/09:00am 19.1 13.2 10.4 57 4.7 NNE 32 35 17 19 1018.4 1018.4 0.0
18/08:30am 18.7 12.8 10.5 59 4.4 NNE 32 33 17 18 1018.6 1018.6 0.0
18/08:00am 17.9 12.8 10.5 62 4.0 NNE 28 32 15 17 1018.7 1018.7 0.0
18/07:30am 18.1 12.1 10.2 60 4.2 NNE 32 35 17 19 1018.5 1018.5 0.0
18/07:00am 18.1 12.5 10.0 59 4.3 NNE 30 33 16 18 1018.4 1018.4 0.0
18/06:30am 18.1 11.8 9.7 58 4.4 NNE 33 35 18 19 1018.2 1018.2 0.0
18/06:00am 18.1 12.0 9.7 58 4.4 NNE 32 37 17 20 1018.0 1018.0 0.0
18/05:30am 18.1 11.0 9.7 58 4.4 NNE 37 43 20 23 1017.8 1017.8 0.0
18/05:00am 18.3 12.0 9.6 57 4.6 NNE 33 37 18 20 1017.9 1017.9 0.0
18/04:30am 18.2 11.9 9.8 58 4.4 NNE 33 39 18 21 1018.1 1018.1 0.0
18/04:00am 17.7 11.7 10.1 61 4.0 NNE 32 35 17 19 1018.3 1018.3 0.0
18/03:30am 17.9 11.7 10.0 60 4.2 NNE 33 37 18 20 1018.2 1018.2 0.0
18/03:00am 18.0 11.9 10.4 61 4.1 NNE 33 39 18 21 1018.0 1018.0 0.0
18/02:30am 18.2 12.3 10.3 60 4.2 NNE 32 37 17 20 1018.1 1018.1 0.0
18/02:00am 18.0 11.8 10.1 60 4.2 NNE 33 39 18 21 1018.4 1018.4 0.0
18/01:30am 17.1 12.0 10.5 65 3.5 NNE 28 30 15 16 1018.6 1018.6 0.0
18/01:00am 17.8 11.7 10.4 62 3.9 NNE 33 39 18 21 1018.8 1018.8 0.0
18/12:30am 17.8 12.4 10.9 64 3.7 NNE 30 33 16 18 1019.0 1019.0 0.0
18/12:00am 17.7 14.2 11.0 65 3.6 NNE 20 30 11 16 1019.3 1019.3 0.0
 
Date/Time
EDT
Temp
°C
App
Temp
°C
Dew
Point
°C
Rel
Hum
%
Delta-T
°C
Wind Press
QNH
hPa
Press
MSL
hPa
Rain since
9am
mm
Dir  Spd
km/h
Gust
km/h
Spd
kts
Gust
kts
17/11:30pm 17.7 14.7 10.6 63 3.8 NNE 17 20 9 11 1019.5 1019.5 0.0
17/11:00pm 19.7 15.3 10.4 55 5.0 NE 24 32 13 17 1019.2 1019.2 0.0
17/10:30pm 19.8 16.3 10.8 56 4.9 NE 20 26 11 14 1019.6 1019.6 0.0
17/10:00pm 20.4 17.0 11.1 55 5.1 NE 20 26 11 14 1020.1 1020.1 0.0
17/09:30pm 18.1 16.0 12.3 69 3.2 NE 15 20 8 11 1020.6 1020.6 0.0
17/09:00pm 16.6 12.9 11.5 72 2.8 NNE 22 26 12 14 1020.6 1020.6 0.0
17/08:30pm 16.6 13.3 10.9 69 3.1 NNE 19 24 10 13 1020.4 1020.4 0.0
17/08:00pm 18.6 14.4 11.2 62 4.0 NNW 24 32 13 17 1020.1 1020.1 0.0
17/07:30pm 18.7 13.9 11.5 63 3.9 NNW 28 35 15 19 1020.0 1020.0 0.0
17/07:00pm 18.4 13.8 11.2 63 3.9 NNW 26 32 14 17 1019.9 1019.9 0.0
17/06:30pm 19.6 15.4 11.1 58 4.6 NW 24 33 13 18 1019.7 1019.7 0.0
17/06:00pm 20.5 16.7 11.2 55 5.1 NW 22 33 12 18 1019.4 1019.4 0.0
17/05:30pm 20.9 15.5 11.0 53 5.4 NW 30 37 16 20 1019.4 1019.4 0.0
17/05:00pm 21.5 16.4 10.6 50 6.0 NW 28 35 15 19 1019.3 1019.3 0.0
17/04:30pm 21.4 16.4 11.1 52 5.7 NW 28 35 15 19 1019.5 1019.5 0.0
17/04:00pm 21.5 17.1 11.8 54 5.4 NW 26 35 14 19 1019.7 1019.7 0.0
17/03:30pm 21.7 16.9 11.7 53 5.6 NW 28 33 15 18 1019.9 1019.9 0.0
17/03:00pm 22.4 17.2 11.5 50 6.1 NW 30 33 16 18 1020.0 1020.0 0.0
17/02:30pm 23.4 18.4 12.1 49 6.4 NW 30 33 16 18 1020.2 1020.2 0.0
17/02:00pm 24.1 20.4 12.7 49 6.5 NW 24 30 13 16 1020.5 1020.5 0.0
17/01:30pm 25.6 24.2 13.5 47 7.1 NW 13 20 7 11 1020.8 1020.8 0.0
17/01:00pm 25.1 24.5 12.3 45 7.3 N 7 11 4 6 1020.9 1020.9 0.0
17/12:30pm 23.3 22.4 11.4 47 6.7 NNE 7 11 4 6 1021.1 1021.1 0.0
17/12:00pm 22.8 20.5 10.6 46 6.7 NNE 13 15 7 8 1021.4 1021.4 0.0
17/11:30am 22.1 19.8 10.3 47 6.4 NNE 13 15 7 8 1021.6 1021.6 0.0
17/11:00am 21.4 18.7 10.3 49 6.0 NNE 15 17 8 9 1021.7 1021.7 0.0
17/10:30am 20.7 17.5 11.3 55 5.2 NE 19 20 10 11 1021.7 1021.7 0.0
17/10:00am 19.6 16.9 12.8 65 3.8 NE 19 24 10 13 1021.8 1021.8 0.0
17/09:30am 17.9 14.5 11.2 65 3.6 NE 20 24 11 13 1021.6 1021.6 0.0
17/09:00am 16.1 12.6 12.1 77 2.2 ENE 22 28 12 15 1021.7 1021.7 0.2
17/08:30am 14.6 10.6 11.9 84 1.5 ENE 24 30 13 16 1021.6 1021.6 0.2
17/08:00am 12.7 8.8 10.9 89 0.9 ENE 22 30 12 16 1021.4 1021.4 0.2
17/07:30am 11.2 8.3 9.8 91 0.7 ENE 15 20 8 11 1021.6 1021.6 0.2
17/07:00am 10.1 7.3 8.7 91 0.7 ENE 13 15 7 8 1021.7 1021.7 0.2
17/06:30am 9.4 6.9 8.0 91 0.7 ENE 11 11 6 6 1021.4 1021.4 0.2
17/06:00am 9.3 7.2 8.1 92 0.6 ENE 9 11 5 6 1021.1 1021.1 0.2
17/05:30am 9.3 6.4 8.1 92 0.6 ENE 13 15 7 8 1021.0 1021.0 0.2
17/05:00am 9.6 6.4 8.4 92 0.6 ENE 15 15 8 8 1021.1 1021.1 0.2
17/04:30am 9.0 7.2 7.8 92 0.6 ENE 7 9 4 5 1021.4 1021.4 0.0
17/04:00am 9.5 9.1 8.1 91 0.7 CALM 0 2 0 1 1021.6 1021.6 0.0
17/03:30am 9.9 8.4 8.5 91 0.7 SSW 6 9 3 5 1021.6 1021.6 0.0
17/03:00am 9.2 7.6 7.8 91 0.7 S 6 7 3 4 1021.7 1021.7 0.0
17/02:30am 9.7 8.5 8.1 90 0.8 E 4 6 2 3 1021.7 1021.7 0.0
17/02:00am 10.5 8.9 8.9 90 0.8 NE 7 13 4 7 1021.8 1021.8 0.0
17/01:30am 11.0 10.9 9.3 89 0.9 CALM 0 0 0 0 1022.3 1022.3 0.0
17/01:00am 11.0 10.5 9.3 89 0.8 NE 2 4 1 2 1022.7 1022.7 0.0
17/12:30am 10.9 10.0 9.2 89 0.8 NE 4 6 2 3 1022.8 1022.8 0.0
17/12:00am 11.2 10.0 9.5 89 0.9 NE 6 9 3 5 1022.7 1022.7 0.0
 
Date/Time
EDT
Temp
°C
App
Temp
°C
Dew
Point
°C
Rel
Hum
%
Delta-T
°C
Wind Press
QNH
hPa
Press
MSL
hPa
Rain since
9am
mm
Dir  Spd
km/h
Gust
km/h
Spd
kts
Gust
kts
16/11:30pm 10.7 9.3 8.8 88 0.9 NE 6 6 3 3 1023.0 1023.0 0.0
16/11:00pm 11.0 10.8 9.1 88 0.9 CALM 0 0 0 0 1023.4 1023.4 0.0
16/10:30pm 11.0 10.8 8.9 87 1.0 CALM 0 2 0 1 1023.7 1023.7 0.0
16/10:00pm 11.2 9.9 9.1 87 1.0 SW 6 9 3 5 1024.1 1024.1 0.0
16/09:30pm 11.3 9.8 9.2 87 1.1 SW 7 9 4 5 1024.3 1024.3 0.0
16/09:00pm 11.2 9.6 8.9 86 1.1 WSW 7 7 4 4 1024.3 1024.3 0.0
16/08:30pm 11.2 10.2 8.8 85 1.2 WSW 4 6 2 3 1024.2 1024.2 0.0

Other Formats:

Comma delimited format used in spreadsheet applications
http://www.bom.gov.au/fwo/IDT60801/IDT60801.94974.axf

JavaScript Object Notation format (JSON) in row-major order
http://www.bom.gov.au/fwo/IDT60801/IDT60801.94974.json